createdAt,value
2022-11-09T05:30:37.768Z,14.15
2022-11-09T05:31:37.679Z,14.15
2022-11-09T05:32:37.638Z,14.20
2022-11-09T05:33:37.661Z,14.17
2022-11-09T05:34:37.632Z,14.17
2022-11-09T05:35:37.619Z,14.18
2022-11-09T05:36:37.674Z,14.20
2022-11-09T05:37:37.589Z,14.10
2022-11-09T05:38:37.594Z,14.10
2022-11-09T05:39:37.596Z,14.15
2022-11-09T05:40:37.679Z,14.15
2022-11-09T05:41:37.571Z,14.21
2022-11-09T05:42:37.537Z,14.17
2022-11-09T05:43:37.527Z,14.18
2022-11-09T05:44:37.520Z,14.10
2022-11-09T05:45:44.738Z,14.20
2022-11-09T05:46:38.560Z,14.27
2022-11-09T05:47:37.515Z,14.22
2022-11-09T05:48:37.469Z,14.18
2022-11-09T05:49:37.474Z,14.20
2022-11-09T05:50:37.463Z,14.17
2022-11-09T05:51:37.458Z,14.17
2022-11-09T05:52:37.461Z,14.24
2022-11-09T05:53:39.178Z,14.18
2022-11-09T05:54:37.404Z,14.20
2022-11-09T05:55:37.388Z,14.10
2022-11-09T05:56:37.386Z,14.17
2022-11-09T05:57:37.391Z,14.18
2022-11-09T05:58:39.226Z,14.17
2022-11-09T05:59:37.384Z,14.07
2022-11-09T06:00:37.334Z,14.25
2022-11-09T06:01:37.354Z,14.27
2022-11-09T06:02:37.484Z,14.24
2022-11-09T06:03:37.308Z,14.14
2022-11-09T06:04:37.320Z,14.17
2022-11-09T06:05:37.297Z,14.17
2022-11-09T06:06:37.300Z,14.17
2022-11-09T06:07:37.305Z,14.17
2022-11-09T06:08:37.273Z,14.15
2022-11-09T06:09:37.254Z,14.10
2022-11-09T06:10:37.281Z,14.15
2022-11-09T06:11:37.216Z,14.17
2022-11-09T06:12:37.222Z,14.14
2022-11-09T06:13:37.219Z,14.21
2022-11-09T06:14:37.197Z,14.12
2022-11-09T06:15:37.184Z,14.12
2022-11-09T06:16:37.175Z,14.17
2022-11-09T06:17:37.155Z,14.07
2022-11-09T06:18:37.236Z,14.15
2022-11-09T06:19:37.125Z,14.18
2022-11-09T06:20:37.115Z,14.18
2022-11-09T06:21:37.130Z,14.10
2022-11-09T06:22:37.137Z,14.14
2022-11-09T06:23:37.081Z,14.12
2022-11-09T06:24:37.064Z,14.09
2022-11-09T06:25:37.058Z,14.15
2022-11-09T06:26:37.046Z,14.07
2022-11-09T06:27:37.084Z,14.09
2022-11-09T06:28:37.035Z,14.06
2022-11-09T06:29:37.019Z,14.03
2022-11-09T06:30:37.002Z,14.06
2022-11-09T06:31:36.995Z,14.06
2022-11-09T06:32:36.974Z,14.03
2022-11-09T06:33:36.990Z,14.00
2022-11-09T06:34:37.039Z,14.06
2022-11-09T06:35:36.956Z,14.03
2022-11-09T06:36:36.971Z,13.99
2022-11-09T06:37:36.974Z,14.02
2022-11-09T06:38:36.939Z,13.89
2022-11-09T06:39:36.977Z,13.97
2022-11-09T06:40:36.903Z,13.95
2022-11-09T06:41:36.873Z,13.99
2022-11-09T06:42:36.938Z,13.96
2022-11-09T06:43:36.881Z,13.95
2022-11-09T06:44:36.868Z,13.85
2022-11-09T06:45:36.835Z,13.85
2022-11-09T06:46:36.819Z,13.84
2022-11-09T06:47:36.864Z,13.85
2022-11-09T06:48:36.798Z,13.82
2022-11-09T06:49:36.808Z,13.84
2022-11-09T06:50:36.792Z,13.77
2022-11-09T06:51:36.767Z,13.88
2022-11-09T06:52:36.775Z,13.81
2022-11-09T06:53:36.748Z,13.81
2022-11-09T06:54:36.755Z,13.81
2022-11-09T06:55:36.756Z,13.82
2022-11-09T06:56:36.746Z,13.78
2022-11-09T06:57:36.699Z,13.79
2022-11-09T06:58:36.715Z,13.78
2022-11-09T06:59:36.681Z,13.75
2022-11-09T07:00:36.668Z,13.73
2022-11-09T07:01:36.736Z,13.67
2022-11-09T07:02:36.681Z,13.70
2022-11-09T07:03:36.627Z,13.75
2022-11-09T07:04:36.620Z,13.75
2022-11-09T07:05:36.617Z,13.75
2022-11-09T07:06:36.751Z,13.70
2022-11-09T07:07:36.614Z,13.77
2022-11-09T07:08:36.592Z,13.73
2022-11-09T07:09:36.597Z,13.66
2022-11-09T07:10:36.553Z,13.67
2022-11-09T07:11:36.547Z,13.71
2022-11-09T07:12:36.531Z,13.67
2022-11-09T07:13:36.548Z,13.70
2022-11-09T07:14:36.573Z,13.66
2022-11-09T07:15:36.520Z,13.66
2022-11-09T07:16:36.486Z,13.66
2022-11-09T07:17:36.500Z,13.70
2022-11-09T07:18:36.505Z,13.67
2022-11-09T07:19:36.456Z,13.67
2022-11-09T07:20:36.440Z,13.63
2022-11-09T07:21:36.449Z,13.64
2022-11-09T07:22:36.436Z,13.55
2022-11-09T07:23:36.427Z,13.63
2022-11-09T07:24:36.398Z,13.62
2022-11-09T07:25:36.385Z,13.71
2022-11-09T07:26:36.375Z,13.67
2022-11-09T07:27:36.460Z,13.64
2022-11-09T07:28:36.405Z,13.66
2022-11-09T07:29:36.347Z,13.64
2022-11-09T07:30:36.338Z,13.69
2022-11-09T07:31:36.353Z,13.66
2022-11-09T07:33:06.773Z,13.64
2022-11-09T07:33:37.328Z,13.70
2022-11-09T07:34:36.339Z,13.66
2022-11-09T07:35:36.278Z,13.64
2022-11-09T07:36:36.263Z,13.55
2022-11-09T07:37:36.253Z,13.66
2022-11-09T07:38:36.260Z,13.67
2022-11-09T07:39:36.243Z,13.64
2022-11-09T07:40:36.263Z,13.64
2022-11-09T07:41:36.225Z,13.57
2022-11-09T07:42:36.255Z,13.62
2022-11-09T07:43:36.220Z,13.67
2022-11-09T07:44:36.206Z,13.63
2022-11-09T07:45:36.171Z,13.70
2022-11-09T07:46:36.155Z,13.75
2022-11-09T07:47:36.151Z,13.85
2022-11-09T07:48:36.147Z,13.84
2022-11-09T07:49:36.119Z,13.96
2022-11-09T07:50:36.144Z,14.00
2022-11-09T07:51:36.096Z,14.02
2022-11-09T07:52:36.080Z,14.06
2022-11-09T07:53:36.091Z,14.09
2022-11-09T07:54:36.172Z,14.18
2022-11-09T07:55:36.066Z,14.17
2022-11-09T07:56:36.093Z,14.21
2022-11-09T07:57:36.026Z,14.29
2022-11-09T07:58:36.019Z,14.35
2022-11-09T07:59:36.012Z,14.42
2022-11-09T08:00:36.026Z,14.39
2022-11-09T08:01:36.027Z,14.43
2022-11-09T08:02:35.990Z,14.50
2022-11-09T08:03:35.974Z,14.51
2022-11-09T08:04:35.949Z,14.52
2022-11-09T08:05:35.967Z,14.62
2022-11-09T08:06:35.979Z,14.64
2022-11-09T08:07:35.922Z,14.72
2022-11-09T08:08:35.924Z,14.78
2022-11-09T08:09:35.964Z,14.86
2022-11-09T08:10:35.964Z,15.03
2022-11-09T08:11:35.891Z,14.96
2022-11-09T08:12:37.207Z,14.96
2022-11-09T08:13:35.860Z,15.06
2022-11-09T08:14:35.849Z,15.03
2022-11-09T08:15:35.881Z,15.17
2022-11-09T08:16:37.844Z,15.31
2022-11-09T08:17:35.813Z,15.35
2022-11-09T08:18:35.802Z,15.32
2022-11-09T08:19:35.788Z,15.47
2022-11-09T08:20:35.794Z,15.47
2022-11-09T08:21:35.818Z,15.47
2022-11-09T08:22:35.760Z,15.54
2022-11-09T08:23:35.755Z,15.59
2022-11-09T08:24:35.739Z,15.64
2022-11-09T08:25:35.752Z,15.62
2022-11-09T08:26:35.730Z,15.56
2022-11-09T08:27:35.761Z,15.72
2022-11-09T08:28:35.690Z,15.76
2022-11-09T08:29:35.685Z,15.84
2022-11-09T08:30:35.668Z,15.75
2022-11-09T08:31:35.682Z,15.86
2022-11-09T08:32:35.656Z,15.93
2022-11-09T08:33:35.686Z,15.94
2022-11-09T08:34:38.247Z,16.07
2022-11-09T08:35:35.788Z,16.04
2022-11-09T08:36:35.624Z,16.05
2022-11-09T08:37:35.596Z,16.14
2022-11-09T08:38:35.583Z,16.23
2022-11-09T08:39:35.683Z,16.24
2022-11-09T08:40:35.572Z,16.39
2022-11-09T08:41:35.652Z,16.49
2022-11-09T08:42:35.585Z,16.60
2022-11-09T08:43:37.729Z,16.50
2022-11-09T08:44:38.202Z,16.61
2022-11-09T08:45:38.708Z,16.73
2022-11-09T08:46:40.977Z,16.89
2022-11-09T08:47:37.254Z,16.98
2022-11-09T08:48:35.513Z,16.97
2022-11-09T08:49:35.467Z,16.93
2022-11-09T08:50:35.461Z,16.94
2022-11-09T08:51:35.439Z,16.97
2022-11-09T08:52:35.464Z,17.01
2022-11-09T08:53:35.415Z,17.01
2022-11-09T08:54:35.416Z,16.81
2022-11-09T08:55:35.396Z,16.93
2022-11-09T08:56:35.429Z,16.89
2022-11-09T08:57:35.465Z,17.11
2022-11-09T08:58:35.399Z,17.04
2022-11-09T08:59:35.355Z,17.14
2022-11-09T09:00:35.347Z,17.04
2022-11-09T09:01:35.410Z,17.07
2022-11-09T09:02:35.322Z,17.25
2022-11-09T09:03:35.359Z,17.23
2022-11-09T09:04:35.299Z,17.23
2022-11-09T09:05:35.297Z,17.25
2022-11-09T09:06:35.318Z,17.19
2022-11-09T09:07:35.276Z,17.18
2022-11-09T09:08:35.438Z,17.04
2022-11-09T09:09:35.250Z,17.15
2022-11-09T09:10:35.239Z,17.11
2022-11-09T09:11:35.253Z,17.06
2022-11-09T09:12:35.263Z,17.14
2022-11-09T09:13:39.106Z,17.04
2022-11-09T09:14:35.216Z,17.15
2022-11-09T09:15:35.296Z,17.21
2022-11-09T09:16:35.190Z,17.19
2022-11-09T09:17:35.190Z,17.23
2022-11-09T09:18:35.160Z,17.26
2022-11-09T09:19:35.162Z,17.14
2022-11-09T09:20:35.122Z,17.16
2022-11-09T09:21:35.129Z,17.26
2022-11-09T09:22:35.202Z,17.22
2022-11-09T09:23:35.123Z,17.23
2022-11-09T09:24:35.129Z,17.31
2022-11-09T09:25:35.077Z,17.25
2022-11-09T09:26:35.068Z,17.21
2022-11-09T09:27:35.051Z,17.08
2022-11-09T09:28:35.047Z,17.01
2022-11-09T09:29:35.061Z,16.97
2022-11-09T09:30:35.096Z,16.97
2022-11-09T09:31:35.013Z,16.96
2022-11-09T09:32:35.074Z,16.98
2022-11-09T09:33:35.008Z,16.94
2022-11-09T09:34:34.991Z,16.81
2022-11-09T09:35:34.972Z,16.83
2022-11-09T09:36:34.955Z,16.81
2022-11-09T09:37:34.962Z,16.75
2022-11-09T09:38:35.025Z,16.79
2022-11-09T09:39:34.923Z,16.60
2022-11-09T09:40:34.918Z,16.60
2022-11-09T09:41:34.907Z,16.46
2022-11-09T09:42:34.914Z,16.34
2022-11-09T09:43:39.722Z,16.30
2022-11-09T09:44:34.891Z,16.27
2022-11-09T09:45:34.873Z,16.23
2022-11-09T09:46:34.870Z,16.21
2022-11-09T09:47:34.869Z,16.12
2022-11-09T09:48:34.919Z,16.27
2022-11-09T09:49:34.896Z,16.38
2022-11-09T09:50:34.839Z,16.34
2022-11-09T09:51:34.793Z,16.31
2022-11-09T09:52:34.811Z,16.43
2022-11-09T09:53:34.802Z,16.56
2022-11-09T09:54:34.765Z,16.68
2022-11-09T09:55:34.775Z,16.73
2022-11-09T09:56:34.746Z,16.79
2022-11-09T09:57:40.555Z,16.83
2022-11-09T09:58:35.752Z,16.78
2022-11-09T09:59:34.735Z,16.81
2022-11-09T10:00:34.773Z,16.70
2022-11-09T10:01:34.689Z,16.79
2022-11-09T10:02:34.773Z,16.81
2022-11-09T10:03:34.668Z,16.71
2022-11-09T10:04:34.790Z,16.68
2022-11-09T10:05:34.648Z,16.76
2022-11-09T10:06:34.708Z,16.86
2022-11-09T10:07:34.664Z,16.86
2022-11-09T10:08:34.616Z,16.71
2022-11-09T10:09:34.637Z,16.76
2022-11-09T10:10:34.606Z,16.70
2022-11-09T10:11:34.593Z,16.73
2022-11-09T10:12:34.595Z,16.66
2022-11-09T10:13:34.579Z,16.76
2022-11-09T10:14:34.570Z,16.71
2022-11-09T10:15:34.540Z,16.73
2022-11-09T10:16:34.580Z,16.78
2022-11-09T10:17:34.522Z,16.64
2022-11-09T10:18:34.607Z,16.66
2022-11-09T10:19:34.524Z,16.67
2022-11-09T10:20:34.490Z,16.73
2022-11-09T10:21:34.473Z,16.83
2022-11-09T10:22:34.491Z,16.82
2022-11-09T10:23:34.458Z,16.79
2022-11-09T10:24:34.465Z,16.83
2022-11-09T10:26:35.424Z,16.88
2022-11-09T10:27:34.438Z,16.97
2022-11-09T10:28:54.225Z,16.97
2022-11-09T10:29:35.390Z,16.97
2022-11-09T10:30:34.403Z,16.94
2022-11-09T10:31:34.396Z,16.93
2022-11-09T10:32:34.405Z,16.81
2022-11-09T10:33:34.358Z,16.81
2022-11-09T10:34:34.385Z,16.83
2022-11-09T10:35:34.397Z,16.88
2022-11-09T10:36:34.335Z,16.86
2022-11-09T10:37:34.335Z,16.70
2022-11-09T10:38:34.308Z,16.75
2022-11-09T10:39:34.340Z,16.67
2022-11-09T10:40:34.320Z,16.63
2022-11-09T10:41:34.272Z,16.58
2022-11-09T10:42:34.275Z,16.60
2022-11-09T10:43:34.253Z,16.56
2022-11-09T10:44:34.234Z,16.50
2022-11-09T10:45:34.233Z,16.48
2022-11-09T10:46:34.278Z,16.43
2022-11-09T10:47:34.228Z,16.41
2022-11-09T10:48:34.212Z,16.35
2022-11-09T10:49:34.193Z,16.35
2022-11-09T10:50:34.200Z,16.27
2022-11-09T10:51:34.192Z,16.25
2022-11-09T10:52:34.182Z,16.23
2022-11-09T10:53:34.161Z,16.07
2022-11-09T10:54:34.130Z,16.20
2022-11-09T10:55:34.142Z,16.15
2022-11-09T10:56:47.248Z,16.08
2022-11-09T10:57:35.133Z,16.02
2022-11-09T10:58:34.097Z,16.05
2022-11-09T10:59:34.073Z,16.11
2022-11-09T11:00:34.076Z,16.01
2022-11-09T11:01:34.124Z,16.04
2022-11-09T11:02:34.037Z,16.17
2022-11-09T11:03:34.039Z,16.01
2022-11-09T11:04:34.039Z,16.05
2022-11-09T11:05:34.019Z,16.09
2022-11-09T11:06:34.098Z,16.07
2022-11-09T11:07:33.984Z,16.05
2022-11-09T11:08:33.973Z,16.02
2022-11-09T11:09:33.997Z,16.07
2022-11-09T11:10:33.965Z,16.07
2022-11-09T11:11:36.143Z,16.12
2022-11-09T11:12:33.963Z,16.14
2022-11-09T11:13:33.945Z,16.07
2022-11-09T11:14:33.926Z,16.02
2022-11-09T11:15:33.904Z,16.05
2022-11-09T11:16:33.915Z,16.14
2022-11-09T11:17:33.880Z,16.15
2022-11-09T11:18:33.877Z,16.05
2022-11-09T11:19:33.858Z,16.12
2022-11-09T11:20:33.867Z,16.21
2022-11-09T11:21:33.857Z,16.08
2022-11-09T11:22:33.856Z,16.15
2022-11-09T11:23:33.814Z,16.04
2022-11-09T11:24:33.843Z,16.05
2022-11-09T11:25:33.812Z,16.08
2022-11-09T11:26:33.774Z,16.02
2022-11-09T11:27:33.812Z,15.97
2022-11-09T11:28:33.812Z,15.92
2022-11-09T11:29:33.744Z,16.00
2022-11-09T11:30:33.738Z,15.97
2022-11-09T11:31:33.730Z,15.97
2022-11-09T11:32:33.737Z,15.96
2022-11-09T11:33:33.714Z,15.94
2022-11-09T11:34:58.563Z,16.08
2022-11-09T11:35:34.683Z,16.17
2022-11-09T11:36:33.740Z,16.12
2022-11-09T11:37:33.681Z,16.15
2022-11-09T11:38:33.757Z,16.20
2022-11-09T11:39:33.658Z,16.17
2022-11-09T11:40:33.628Z,16.15
2022-11-09T11:41:33.642Z,16.23
2022-11-09T11:42:33.612Z,16.09
2022-11-09T11:43:33.613Z,16.17
2022-11-09T11:44:33.609Z,16.21
2022-11-09T11:45:40.589Z,16.25
2022-11-09T11:46:34.565Z,16.28
2022-11-09T11:47:33.553Z,16.33
2022-11-09T11:48:33.543Z,16.33
2022-11-09T11:49:33.529Z,16.30
2022-11-09T11:50:33.528Z,16.31
2022-11-09T11:51:33.546Z,16.33
2022-11-09T11:52:33.511Z,16.21
2022-11-09T11:53:33.489Z,16.23
2022-11-09T11:54:33.501Z,16.30
2022-11-09T11:55:33.490Z,16.34
2022-11-09T11:56:33.491Z,16.15
2022-11-09T11:57:33.446Z,16.30
2022-11-09T11:58:33.434Z,16.27
2022-11-09T11:59:33.427Z,16.27
2022-11-09T12:00:33.411Z,16.20
2022-11-09T12:01:33.417Z,16.28
2022-11-09T12:02:33.432Z,16.28
2022-11-09T12:03:33.394Z,16.38
2022-11-09T12:04:33.378Z,16.31
2022-11-09T12:05:33.375Z,16.31
2022-11-09T12:06:33.399Z,16.28
2022-11-09T12:07:33.380Z,16.30
2022-11-09T12:08:33.341Z,16.30
2022-11-09T12:09:33.338Z,16.25
2022-11-09T12:10:33.319Z,16.30
2022-11-09T12:11:33.302Z,16.21
2022-11-09T12:12:33.294Z,16.28
2022-11-09T12:13:33.270Z,16.20
2022-11-09T12:14:33.284Z,16.24
2022-11-09T12:15:33.280Z,16.25
2022-11-09T12:16:33.246Z,16.24
2022-11-09T12:17:33.229Z,16.25
2022-11-09T12:18:33.232Z,16.17
2022-11-09T12:19:35.818Z,16.24
2022-11-09T12:20:33.208Z,16.15
2022-11-09T12:21:33.182Z,16.25
2022-11-09T12:22:33.180Z,16.25
2022-11-09T12:23:33.187Z,16.27
2022-11-09T12:24:33.157Z,16.23
2022-11-09T12:25:33.140Z,16.21
2022-11-09T12:26:33.169Z,16.21
2022-11-09T12:27:33.630Z,16.31
2022-11-09T12:28:33.147Z,16.25
2022-11-09T12:29:33.122Z,16.25
2022-11-09T12:30:33.094Z,16.23
2022-11-09T12:31:33.081Z,16.23
2022-11-09T12:32:33.756Z,16.25
2022-11-09T12:33:35.607Z,16.17
2022-11-09T12:34:34.058Z,16.17
2022-11-09T12:35:33.025Z,16.04
2022-11-09T12:36:33.139Z,16.15
2022-11-09T12:37:33.008Z,16.07
2022-11-09T12:38:33.024Z,16.01
2022-11-09T12:39:33.002Z,16.00
2022-11-09T12:40:33.013Z,16.11
2022-11-09T12:41:32.973Z,16.02
2022-11-09T12:42:32.969Z,16.05
2022-11-09T12:43:32.950Z,16.08
2022-11-09T12:44:32.961Z,16.15
2022-11-09T12:45:32.928Z,16.04
2022-11-09T12:46:32.916Z,16.04
2022-11-09T12:47:32.934Z,16.07
2022-11-09T12:48:32.893Z,16.09
2022-11-09T12:49:32.923Z,16.01
2022-11-09T12:50:32.880Z,15.93
2022-11-09T12:51:32.868Z,15.94
2022-11-09T12:52:32.850Z,16.07
2022-11-09T12:53:32.848Z,16.07
2022-11-09T12:54:32.850Z,16.02
2022-11-09T12:55:32.807Z,16.01
2022-11-09T12:56:32.806Z,15.94
2022-11-09T12:57:32.843Z,15.89
2022-11-09T12:58:32.810Z,16.00
2022-11-09T12:59:32.790Z,15.94
2022-11-09T13:00:32.788Z,15.93
2022-11-09T13:01:32.790Z,15.96
2022-11-09T13:02:32.740Z,16.05
2022-11-09T13:03:32.730Z,15.93
2022-11-09T13:04:32.754Z,15.93
2022-11-09T13:05:32.725Z,16.07
2022-11-09T13:06:32.751Z,16.08
2022-11-09T13:07:32.688Z,16.00
2022-11-09T13:08:32.691Z,15.92
2022-11-09T13:09:44.433Z,15.93
2022-11-09T13:10:33.680Z,15.90
2022-11-09T13:11:32.651Z,15.96
2022-11-09T13:12:32.624Z,15.94
2022-11-09T13:13:32.644Z,16.02
2022-11-09T13:14:32.625Z,15.93
2022-11-09T13:15:32.612Z,15.96
2022-11-09T13:16:32.579Z,16.08
2022-11-09T13:17:32.596Z,16.01
2022-11-09T13:18:35.747Z,15.96
2022-11-09T13:19:32.560Z,15.96
2022-11-09T13:20:53.521Z,15.90
2022-11-09T13:21:33.569Z,15.90
2022-11-09T13:22:32.524Z,15.92
2022-11-09T13:23:54.537Z,16.01
2022-11-09T13:24:33.496Z,15.89
2022-11-09T13:25:32.511Z,15.92
2022-11-09T13:26:32.472Z,15.92
2022-11-09T13:27:32.463Z,15.94
2022-11-09T13:28:32.451Z,15.93
2022-11-09T13:29:32.435Z,15.92
2022-11-09T13:30:32.466Z,15.89
2022-11-09T13:31:32.427Z,15.97
2022-11-09T13:32:32.412Z,15.93
2022-11-09T13:33:32.405Z,15.93
2022-11-09T13:34:32.411Z,16.00
2022-11-09T13:35:32.394Z,15.93
2022-11-09T13:36:32.387Z,15.87
2022-11-09T13:37:32.352Z,15.89
2022-11-09T13:38:32.374Z,16.01
2022-11-09T13:39:32.338Z,15.83
2022-11-09T13:40:32.322Z,15.93
2022-11-09T13:41:32.323Z,15.92
2022-11-09T13:42:32.315Z,15.93
2022-11-09T13:43:32.304Z,15.96
2022-11-09T13:44:35.754Z,15.92
2022-11-09T13:45:33.289Z,15.90
2022-11-09T13:46:32.274Z,15.97
2022-11-09T13:47:32.250Z,15.84
2022-11-09T13:48:32.236Z,15.90
2022-11-09T13:49:32.226Z,15.90
2022-11-09T13:50:32.234Z,15.83
2022-11-09T13:51:32.199Z,15.97
2022-11-09T13:52:32.189Z,15.93
2022-11-09T13:53:32.181Z,15.94
2022-11-09T13:54:32.175Z,15.94
2022-11-09T13:55:32.191Z,16.01
2022-11-09T13:56:32.204Z,15.82
2022-11-09T13:57:32.137Z,15.84
2022-11-09T13:58:32.132Z,15.92
2022-11-09T13:59:32.119Z,15.86
2022-11-09T14:00:32.104Z,15.84
2022-11-09T14:01:36.966Z,15.89
2022-11-09T14:02:33.106Z,15.94
2022-11-09T14:03:32.117Z,15.90
2022-11-09T14:04:32.057Z,16.00
2022-11-09T14:05:32.055Z,16.00
2022-11-09T14:06:32.071Z,15.92
2022-11-09T14:07:32.026Z,15.87
2022-11-09T14:08:36.223Z,15.89
2022-11-09T14:09:33.019Z,15.92
2022-11-09T14:10:32.000Z,15.82
2022-11-09T14:11:31.984Z,15.89
2022-11-09T14:12:32.065Z,16.00
2022-11-09T14:13:31.980Z,15.86
2022-11-09T14:14:31.974Z,15.89
2022-11-09T14:15:31.952Z,15.92
2022-11-09T14:16:31.973Z,15.92
2022-11-09T14:17:31.914Z,15.84
2022-11-09T14:18:31.964Z,15.89
2022-11-09T14:19:31.910Z,15.84
2022-11-09T14:20:31.888Z,15.86
2022-11-09T14:21:31.890Z,15.90
2022-11-09T14:22:31.867Z,15.86
2022-11-09T14:23:31.890Z,15.83
2022-11-09T14:24:31.867Z,15.84
2022-11-09T14:25:31.864Z,15.90
2022-11-09T14:26:31.828Z,15.80
2022-11-09T14:27:31.809Z,15.84
2022-11-09T14:28:31.799Z,15.72
2022-11-09T14:29:31.793Z,15.80
2022-11-09T14:30:31.791Z,15.87
2022-11-09T14:31:31.763Z,15.72
2022-11-09T14:32:31.758Z,15.75
2022-11-09T14:33:31.762Z,15.74
2022-11-09T14:34:31.749Z,15.74
2022-11-09T14:35:31.734Z,15.74
2022-11-09T14:36:31.752Z,15.67
2022-11-09T14:37:31.755Z,15.65
2022-11-09T14:38:31.698Z,15.67
2022-11-09T14:39:31.682Z,15.72
2022-11-09T14:40:31.670Z,15.69
2022-11-09T14:41:31.679Z,15.49
2022-11-09T14:42:31.652Z,15.54
2022-11-09T14:43:31.680Z,15.54
2022-11-09T14:44:31.653Z,15.53
2022-11-09T14:45:31.618Z,15.59
2022-11-09T14:46:31.634Z,15.51
2022-11-09T14:47:31.591Z,15.51
2022-11-09T14:48:31.597Z,15.47
2022-11-09T14:49:31.599Z,15.41
2022-11-09T14:50:31.686Z,15.41
2022-11-09T14:51:31.575Z,15.39
2022-11-09T14:52:31.548Z,15.39
2022-11-09T14:53:31.535Z,15.46
2022-11-09T14:54:31.526Z,15.29
2022-11-09T14:55:31.535Z,15.32
2022-11-09T14:56:31.512Z,15.31
2022-11-09T14:57:31.485Z,15.31
2022-11-09T14:58:31.476Z,15.27
2022-11-09T14:59:31.484Z,15.21
2022-11-09T15:00:31.496Z,15.23
2022-11-09T15:01:31.446Z,15.31
2022-11-09T15:02:31.437Z,15.27
2022-11-09T15:03:31.422Z,15.17
2022-11-09T15:04:31.494Z,15.19
2022-11-09T15:05:31.400Z,15.17
2022-11-09T15:06:31.616Z,15.16
2022-11-09T15:07:31.513Z,15.16
2022-11-09T15:08:31.653Z,15.20
2022-11-09T15:09:31.487Z,15.16
2022-11-09T15:10:31.376Z,15.20
2022-11-09T15:11:31.360Z,15.16
2022-11-09T15:12:31.324Z,15.20
2022-11-09T15:13:31.322Z,15.20
2022-11-09T15:14:31.304Z,15.14
2022-11-09T15:15:31.299Z,15.17
2022-11-09T15:16:31.306Z,15.10
2022-11-09T15:17:31.261Z,15.02
2022-11-09T15:18:33.968Z,15.01
2022-11-09T15:19:31.278Z,15.06
2022-11-09T15:20:31.247Z,15.10
2022-11-09T15:21:31.225Z,14.99
2022-11-09T15:22:31.350Z,15.02
2022-11-09T15:23:31.217Z,15.07
2022-11-09T15:24:31.193Z,14.99
2022-11-09T15:25:31.200Z,15.03
2022-11-09T15:26:31.185Z,15.01
2022-11-09T15:27:31.161Z,15.02
2022-11-09T15:28:31.155Z,14.95
2022-11-09T15:29:31.186Z,14.98
2022-11-09T15:30:31.130Z,14.86
2022-11-09T15:31:31.114Z,14.89
2022-11-09T15:32:31.107Z,14.89
2022-11-09T15:33:31.122Z,14.88
2022-11-09T15:34:31.101Z,14.92
2022-11-09T15:35:31.080Z,14.81
2022-11-09T15:36:31.058Z,14.84
2022-11-09T15:37:31.061Z,14.84
2022-11-09T15:38:31.152Z,14.83
2022-11-09T15:39:31.136Z,14.84
2022-11-09T15:40:31.018Z,14.89
2022-11-09T15:41:31.094Z,14.84
2022-11-09T15:42:30.998Z,14.89
2022-11-09T15:43:30.978Z,14.77
2022-11-09T15:44:31.078Z,14.86
2022-11-09T15:45:30.989Z,14.80
2022-11-09T15:46:30.954Z,14.73
2022-11-09T15:47:30.948Z,14.73
2022-11-09T15:48:30.942Z,14.75
2022-11-09T15:49:30.930Z,14.69
2022-11-09T15:50:30.939Z,14.58
2022-11-09T15:51:30.906Z,14.62
2022-11-09T15:52:30.915Z,14.57
2022-11-09T15:53:30.877Z,14.57
2022-11-09T15:54:30.880Z,14.54
2022-11-09T15:55:30.903Z,14.51
2022-11-09T15:56:30.853Z,14.50
2022-11-09T15:57:30.865Z,14.54
2022-11-09T15:58:30.854Z,14.54
2022-11-09T15:59:30.836Z,14.46
2022-11-09T16:00:30.886Z,14.42
2022-11-09T16:01:30.801Z,14.47
2022-11-09T16:02:30.780Z,14.47
2022-11-09T16:03:30.769Z,14.47
2022-11-09T16:04:30.797Z,14.43
2022-11-09T16:05:30.746Z,14.47
2022-11-09T16:06:30.770Z,14.46
2022-11-09T16:07:30.727Z,14.33
2022-11-09T16:08:30.746Z,14.32
2022-11-09T16:09:30.701Z,14.32
2022-11-09T16:10:30.771Z,14.17
2022-11-09T16:11:30.719Z,14.29
2022-11-09T16:12:30.680Z,14.24
2022-11-09T16:13:30.706Z,14.12
2022-11-09T16:14:30.658Z,14.12
2022-11-09T16:15:30.648Z,14.02
2022-11-09T16:16:30.651Z,14.02
2022-11-09T16:17:30.621Z,14.07
2022-11-09T16:18:31.076Z,14.00
2022-11-09T16:19:30.650Z,13.99
2022-11-09T16:20:30.596Z,13.88
2022-11-09T16:21:30.600Z,13.96
2022-11-09T16:22:30.571Z,13.84
2022-11-09T16:23:30.643Z,13.88
2022-11-09T16:24:30.553Z,13.81
2022-11-09T16:25:30.582Z,13.79
2022-11-09T16:26:30.566Z,13.75
2022-11-09T16:28:31.521Z,13.64
2022-11-09T16:29:30.490Z,13.64
2022-11-09T16:30:30.505Z,13.63
2022-11-09T16:31:48.587Z,13.49
2022-11-09T16:32:31.457Z,13.57
2022-11-09T16:33:30.468Z,13.49
2022-11-09T16:34:30.431Z,13.38
2022-11-09T16:35:30.436Z,13.41
2022-11-09T16:36:30.419Z,13.36
2022-11-09T16:37:30.440Z,13.26
2022-11-09T16:38:30.406Z,13.25
2022-11-09T16:39:30.412Z,13.20
2022-11-09T16:40:30.370Z,13.23
2022-11-09T16:41:30.365Z,13.10
2022-11-09T16:42:30.380Z,13.11
2022-11-09T16:43:30.479Z,13.10
2022-11-09T16:44:30.336Z,13.10
2022-11-09T16:45:33.387Z,13.05
2022-11-09T16:46:30.317Z,12.97
2022-11-09T16:47:30.304Z,12.97
2022-11-09T16:48:30.318Z,13.01
2022-11-09T16:49:30.294Z,12.96
2022-11-09T16:50:30.270Z,12.92
2022-11-09T16:51:30.275Z,12.97
2022-11-09T16:52:30.239Z,12.89
2022-11-09T16:53:30.232Z,12.89
2022-11-09T16:54:30.251Z,12.86
2022-11-09T16:55:30.208Z,12.90
2022-11-09T16:56:30.213Z,12.71
2022-11-09T16:57:30.221Z,12.75
2022-11-09T16:58:30.220Z,12.79
2022-11-09T16:59:30.160Z,12.77
2022-11-09T17:00:48.668Z,12.68
2022-11-09T17:01:31.263Z,12.72
2022-11-09T17:02:30.153Z,12.72
2022-11-09T17:03:30.165Z,12.68
2022-11-09T17:04:30.123Z,12.62
2022-11-09T17:05:30.144Z,12.65
2022-11-09T17:06:30.261Z,12.54
2022-11-09T17:07:30.110Z,12.60
2022-11-09T17:08:30.117Z,12.49
2022-11-09T17:09:30.064Z,12.54
2022-11-09T17:10:30.060Z,12.46
2022-11-09T17:11:30.054Z,12.42
2022-11-09T17:12:30.067Z,12.39
2022-11-09T17:13:30.017Z,12.41
2022-11-09T17:14:30.036Z,12.42
2022-11-09T17:15:30.009Z,12.38
2022-11-09T17:16:29.992Z,12.35
2022-11-09T17:17:29.987Z,12.42
2022-11-09T17:18:29.978Z,12.37
2022-11-09T17:19:29.989Z,12.32
2022-11-09T17:20:29.975Z,12.31
2022-11-09T17:21:29.960Z,12.38
2022-11-09T17:22:29.919Z,12.27
2022-11-09T17:23:29.932Z,12.27
2022-11-09T17:24:29.918Z,12.31
2022-11-09T17:25:29.902Z,12.31
2022-11-09T17:26:29.895Z,12.17
2022-11-09T17:27:29.885Z,12.21
2022-11-09T17:28:29.849Z,12.20
2022-11-09T17:29:29.857Z,12.20
2022-11-09T17:30:29.860Z,12.23
2022-11-09T17:31:29.830Z,12.23
2022-11-09T17:32:29.826Z,12.14
2022-11-09T17:33:29.813Z,12.13
2022-11-09T17:34:29.801Z,12.17
2022-11-09T17:35:29.782Z,12.12
2022-11-09T17:36:57.307Z,12.14
2022-11-09T17:37:30.781Z,12.17
2022-11-09T17:38:29.833Z,12.07
2022-11-09T17:39:29.741Z,12.09
2022-11-09T17:40:29.723Z,12.10
2022-11-09T17:41:29.724Z,12.16
2022-11-09T17:42:29.713Z,12.05
2022-11-09T17:43:29.719Z,12.07
2022-11-09T17:44:29.685Z,12.12
2022-11-09T17:45:29.704Z,12.13
2022-11-09T17:46:29.673Z,12.07
2022-11-09T17:47:29.681Z,12.16
2022-11-09T17:48:29.679Z,12.14
2022-11-09T17:49:29.644Z,12.13
2022-11-09T17:50:29.655Z,12.16
2022-11-09T17:51:29.601Z,12.13
2022-11-09T17:52:29.594Z,12.19
2022-11-09T17:53:29.608Z,12.16
2022-11-09T17:54:35.427Z,12.12
2022-11-09T17:55:30.572Z,12.09
2022-11-09T17:56:29.546Z,12.13
2022-11-09T17:57:29.549Z,12.14
2022-11-09T17:58:29.563Z,12.20
2022-11-09T17:59:29.518Z,12.23
2022-11-09T18:00:29.502Z,12.28
2022-11-09T18:01:29.533Z,12.24
2022-11-09T18:02:29.522Z,12.20
2022-11-09T18:03:29.498Z,12.24
2022-11-09T18:04:29.490Z,12.28
2022-11-09T18:05:29.459Z,12.28
2022-11-09T18:06:29.562Z,12.28
2022-11-09T18:07:29.453Z,12.17
2022-11-09T18:08:29.449Z,12.14
2022-11-09T18:09:44.724Z,12.21
2022-11-09T18:10:30.413Z,12.27
2022-11-09T18:11:29.415Z,12.20
2022-11-09T18:12:29.366Z,12.24
2022-11-09T18:13:29.397Z,12.32
2022-11-09T18:14:29.389Z,12.28
2022-11-09T18:15:29.345Z,12.27
2022-11-09T18:16:29.367Z,12.24
2022-11-09T18:17:29.373Z,12.23
2022-11-09T18:18:29.361Z,12.23
2022-11-09T18:19:29.301Z,12.17
2022-11-09T18:20:29.316Z,12.27
2022-11-09T18:21:29.311Z,12.35
2022-11-09T18:22:29.280Z,12.23
2022-11-09T18:23:29.285Z,12.35
2022-11-09T18:24:29.249Z,12.37